Time;durP1;ratioP1;P1;durP2;ratioP2;P2;SDS_P1;SDS_P2;PMS_P1;PMS_P2;Temp;Humidity;BMP_temperature;BMP_pressure;BME280_temperature;BME280_humidity;BME280_pressure;Samples;Min_cycle;Max_cycle;Signal;HPM_P1;HPM_P2
2023/05/15 00:00:49;;;;;;;16.00;14.10;;;13.50;1.00;;;;;;4998797;28;20452;-75
2023/05/15 00:03:20;;;;;;;13.53;12.53;;;13.40;1.00;;;;;;5001705;28;21079;-75
2023/05/15 00:05:48;;;;;;;14.93;13.50;;;13.40;1.00;;;;;;5001327;28;20478;-75
2023/05/15 00:08:15;;;;;;;14.73;13.53;;;13.30;1.00;;;;;;5011563;28;20461;-87
2023/05/15 00:10:42;;;;;;;13.50;12.33;;;13.30;1.00;;;;;;5015607;28;20568;-88
2023/05/15 00:13:09;;;;;;;12.50;11.40;;;13.30;1.00;;;;;;5016840;28;20527;-88
2023/05/15 00:15:36;;;;;;;14.10;13.00;;;13.30;1.00;;;;;;5013159;28;20527;-89
2023/05/15 00:18:03;;;;;;;13.67;12.37;;;13.30;1.00;;;;;;5009377;28;20532;-88
2023/05/15 00:20:31;;;;;;;14.10;12.83;;;13.30;1.00;;;;;;4991144;28;20460;-88
2023/05/15 00:22:58;;;;;;;14.73;13.33;;;13.30;1.00;;;;;;5012834;28;20457;-88
2023/05/15 00:25:25;;;;;;;13.90;12.67;;;13.30;1.00;;;;;;5009998;28;20473;-89
2023/05/15 00:28:01;;;;;;;13.93;12.63;;;13.30;1.00;;;;;;5008196;28;21147;-88
2023/05/15 00:30:30;;;;;;;14.27;12.93;;;13.20;1.00;;;;;;5009069;28;21450;-88
2023/05/15 00:32:57;;;;;;;14.60;13.27;;;13.10;1.00;;;;;;5013528;28;20480;-86
2023/05/15 00:35:25;;;;;;;12.73;11.53;;;13.10;1.00;;;;;;5008187;28;21170;-89
2023/05/15 00:37:59;;;;;;;14.60;13.40;;;13.00;1.00;;;;;;5010913;28;20510;-90
2023/05/15 00:40:27;;;;;;;14.50;13.03;;;13.00;1.00;;;;;;5008645;28;20900;-88
2023/05/15 00:42:55;;;;;;;14.67;13.27;;;13.00;1.00;;;;;;5005670;28;20958;-88
2023/05/15 00:45:23;;;;;;;13.80;12.70;;;13.00;1.00;;;;;;5001285;28;20470;-88
2023/05/15 00:47:53;;;;;;;14.20;13.00;;;13.00;1.00;;;;;;5007518;28;20978;-87
2023/05/15 00:50:21;;;;;;;13.87;12.70;;;13.00;1.00;;;;;;4978940;28;20439;-87
2023/05/15 00:52:48;;;;;;;13.97;12.83;;;13.00;1.00;;;;;;5004102;28;20490;-87
2023/05/15 00:55:18;;;;;;;13.80;12.50;;;12.90;1.00;;;;;;5005077;28;20484;-86
2023/05/15 00:57:48;;;;;;;14.70;13.40;;;12.90;1.00;;;;;;5009128;28;20475;-87
2023/05/15 01:00:19;;;;;;;14.43;12.97;;;12.80;1.00;;;;;;5001876;28;20917;-75
2023/05/15 01:02:49;;;;;;;14.60;13.40;;;12.80;1.00;;;;;;4983553;28;20468;-90
2023/05/15 01:05:17;;;;;;;14.67;13.43;;;12.60;1.00;;;;;;5004063;28;20512;-87
2023/05/15 01:07:52;;;;;;;14.70;13.33;;;12.60;1.00;;;;;;5008829;28;20538;-88
2023/05/15 01:10:22;;;;;;;14.80;13.47;;;12.60;1.00;;;;;;5002618;28;20482;-88
2023/05/15 01:12:53;;;;;;;14.80;13.43;;;12.60;1.00;;;;;;4999917;28;20487;-88
2023/05/15 01:15:20;;;;;;;14.07;12.90;;;12.60;1.00;;;;;;4993107;28;20483;-82
2023/05/15 01:17:47;;;;;;;15.93;14.53;;;12.60;1.00;;;;;;4997888;28;20464;-83
2023/05/15 01:20:28;;;;;;;14.90;13.70;;;12.60;1.00;;;;;;4995753;28;21395;-82
2023/05/15 01:23:10;;;;;;;15.13;13.83;;;12.60;1.00;;;;;;4997156;28;20540;-82
2023/05/15 01:26:16;;;;;;;15.40;14.10;;;12.50;1.00;;;;;;4991903;28;20470;-82
2023/05/15 01:28:57;;;;;;;15.27;14.07;;;12.40;1.00;;;;;;4995158;28;20617;-81
2023/05/15 01:31:30;;;;;;;16.00;14.67;;;12.30;1.00;;;;;;4995453;28;21464;-82
2023/05/15 01:34:02;;;;;;;15.67;14.40;;;12.20;1.00;;;;;;4991809;28;20435;-81
2023/05/15 01:36:37;;;;;;;16.70;15.30;;;12.10;1.00;;;;;;4992617;28;20522;-81
2023/05/15 01:39:10;;;;;;;17.67;15.97;;;12.00;1.00;;;;;;4997286;28;20467;-81
2023/05/15 01:41:43;;;;;;;17.50;15.90;;;12.00;1.00;;;;;;4992319;28;20486;-81
2023/05/15 01:44:30;;;;;;;16.30;15.10;;;11.90;1.00;;;;;;4981487;28;20495;-80
2023/05/15 01:47:01;;;;;;;18.00;16.27;;;12.00;1.00;;;;;;4983156;28;20474;-82
2023/05/15 01:49:30;;;;;;;16.30;14.97;;;12.00;1.00;;;;;;4997229;28;21037;-80
2023/05/15 01:52:03;;;;;;;17.87;15.97;;;12.10;1.00;;;;;;4992651;28;21006;-79
2023/05/15 01:54:38;;;;;;;19.17;17.37;;;12.00;1.00;;;;;;4996760;28;20932;-81
2023/05/15 01:57:10;;;;;;;16.43;15.03;;;12.00;1.00;;;;;;4995985;28;20569;-81
2023/05/15 01:59:39;;;;;;;18.60;16.93;;;12.00;1.00;;;;;;4997557;28;20462;-81
2023/05/15 02:02:07;;;;;;;16.53;15.23;;;11.90;1.00;;;;;;4977876;28;20462;-81
2023/05/15 02:04:34;;;;;;;17.37;15.67;;;11.90;1.00;;;;;;4998253;28;20553;-81
2023/05/15 02:07:04;;;;;;;18.13;16.50;;;12.00;1.00;;;;;;4996168;28;20539;-81
2023/05/15 02:09:32;;;;;;;18.97;17.27;;;12.00;1.00;;;;;;4987479;28;20522;-81
2023/05/15 02:12:01;;;;;;;17.57;16.07;;;12.00;1.00;;;;;;4994073;28;20494;-81
2023/05/15 02:14:35;;;;;;;18.17;16.67;;;12.10;1.00;;;;;;4993998;28;20475;-82
2023/05/15 02:17:04;;;;;;;18.33;16.63;;;12.10;1.00;;;;;;4989011;28;20488;-80
2023/05/15 02:19:31;;;;;;;18.70;17.20;;;12.10;1.00;;;;;;4996761;28;20462;-80
2023/05/15 02:22:00;;;;;;;19.50;17.80;;;12.10;1.00;;;;;;4995400;28;20458;-80
2023/05/15 02:24:27;;;;;;;18.10;16.40;;;12.10;1.00;;;;;;4990255;28;21139;-81
2023/05/15 02:27:09;;;;;;;18.57;17.00;;;12.00;1.00;;;;;;4996580;28;20483;-81
2023/05/15 02:29:50;;;;;;;19.13;17.33;;;12.00;1.00;;;;;;4991452;28;20459;-82
2023/05/15 02:32:28;;;;;;;20.13;18.00;;;11.90;1.00;;;;;;4991339;28;20427;-82
2023/05/15 02:35:07;;;;;;;19.70;18.10;;;11.90;1.00;;;;;;4996531;28;20462;-82
2023/05/15 02:37:38;;;;;;;18.10;16.50;;;11.80;1.00;;;;;;4992544;28;20439;-82
2023/05/15 02:40:10;;;;;;;19.77;18.00;;;11.70;1.00;;;;;;4994682;28;20462;-80
2023/05/15 02:42:37;;;;;;;20.27;18.60;;;11.70;1.00;;;;;;4999957;28;20484;-81
2023/05/15 02:45:13;;;;;;;19.23;17.60;;;11.60;1.00;;;;;;4991768;28;20459;-82
2023/05/15 02:47:49;;;;;;;17.87;16.37;;;11.60;1.00;;;;;;4998421;28;20471;-81
2023/05/15 02:50:16;;;;;;;17.77;16.33;;;11.50;1.00;;;;;;4993452;28;21284;-81
2023/05/15 02:52:46;;;;;;;17.60;15.97;;;11.40;1.00;;;;;;4992540;28;21183;-82
2023/05/15 02:55:13;;;;;;;18.90;17.00;;;11.40;1.00;;;;;;4998243;28;20458;-81
2023/05/15 02:57:40;;;;;;;19.73;17.20;;;11.40;1.00;;;;;;5000659;28;20565;-82
2023/05/15 03:00:10;;;;;;;20.03;18.23;;;11.40;1.00;;;;;;4998885;28;20469;-82
2023/05/15 03:02:38;;;;;;;18.47;16.90;;;11.30;1.00;;;;;;4999925;28;20481;-82
2023/05/15 03:05:07;;;;;;;18.33;16.63;;;11.30;1.00;;;;;;4970961;28;20466;-81
2023/05/15 03:07:34;;;;;;;20.27;18.27;;;11.20;1.00;;;;;;4995004;28;20525;-82
2023/05/15 03:10:01;;;;;;;20.20;18.23;;;11.30;1.00;;;;;;4996161;28;21330;-82
2023/05/15 03:12:31;;;;;;;18.57;17.07;;;11.30;1.00;;;;;;4995924;28;20523;-83
2023/05/15 03:15:00;;;;;;;18.93;17.30;;;11.40;1.00;;;;;;4998851;28;20915;-82
2023/05/15 03:17:28;;;;;;;18.40;16.77;;;11.30;1.00;;;;;;4991978;28;20470;-84
2023/05/15 03:19:55;;;;;;;18.87;17.23;;;11.40;1.00;;;;;;4990180;28;21239;-82
2023/05/15 03:22:24;;;;;;;19.50;17.90;;;11.40;1.00;;;;;;4996900;28;20469;-82
2023/05/15 03:24:51;;;;;;;18.73;17.00;;;11.40;1.00;;;;;;4991170;28;20469;-82
2023/05/15 03:27:18;;;;;;;18.87;17.17;;;11.40;1.00;;;;;;4997365;28;20474;-78
2023/05/15 03:29:47;;;;;;;19.27;17.47;;;11.40;1.00;;;;;;4997012;28;20487;-79
2023/05/15 03:32:17;;;;;;;20.73;17.23;;;11.50;1.00;;;;;;4993900;28;20462;-78
2023/05/15 03:34:45;;;;;;;20.87;18.93;;;11.50;1.00;;;;;;4997275;28;20521;-81
2023/05/15 03:37:13;;;;;;;19.13;17.53;;;11.50;1.00;;;;;;4992254;28;21337;-80
2023/05/15 03:39:42;;;;;;;18.30;16.77;;;11.50;1.00;;;;;;4997750;28;20485;-80
2023/05/15 03:42:10;;;;;;;21.77;19.70;;;11.60;1.00;;;;;;4999375;28;20433;-79
2023/05/15 03:44:37;;;;;;;19.97;18.07;;;11.50;1.00;;;;;;4998239;28;20508;-79
2023/05/15 03:47:04;;;;;;;65.33;21.67;;;11.30;1.00;;;;;;4990472;28;20470;-79
2023/05/15 03:49:32;;;;;;;34.53;18.67;;;11.30;1.00;;;;;;4991909;28;20517;-81
2023/05/15 03:52:01;;;;;;;27.47;18.40;;;11.30;1.00;;;;;;5003623;28;20467;-80
2023/05/15 03:54:29;;;;;;;19.67;17.57;;;11.20;1.00;;;;;;5007706;28;20422;-82
2023/05/15 03:57:00;;;;;;;19.27;17.47;;;11.20;1.00;;;;;;5004775;28;20430;-82
2023/05/15 03:59:29;;;;;;;18.70;17.13;;;11.10;1.00;;;;;;5001554;28;20442;-83
2023/05/15 04:01:56;;;;;;;18.70;17.10;;;11.20;1.00;;;;;;5008142;28;21348;-82
2023/05/15 04:04:23;;;;;;;19.87;17.90;;;11.20;1.00;;;;;;5003122;28;20975;-86
2023/05/15 04:06:51;;;;;;;19.90;18.10;;;11.20;1.00;;;;;;5007922;28;20553;-85
2023/05/15 04:09:18;;;;;;;20.47;18.50;;;11.30;1.00;;;;;;5008410;28;20462;-83
2023/05/15 04:11:45;;;;;;;19.87;17.97;;;11.40;1.00;;;;;;4997971;28;20502;-85
2023/05/15 04:14:16;;;;;;;21.23;18.00;;;11.40;1.00;;;;;;4980544;28;20516;-84
2023/05/15 04:16:46;;;;;;;21.50;19.40;;;11.50;1.00;;;;;;5006691;28;21216;-84
2023/05/15 04:19:17;;;;;;;20.73;18.77;;;11.60;1.00;;;;;;5009461;28;20466;-85
2023/05/15 04:21:46;;;;;;;21.57;19.40;;;11.60;1.00;;;;;;5003954;28;20537;-84
2023/05/15 04:24:15;;;;;;;22.83;20.10;;;11.60;1.00;;;;;;5002139;28;20415;-82
2023/05/15 04:26:44;;;;;;;20.20;18.20;;;11.70;1.00;;;;;;5002869;28;20449;-84
2023/05/15 04:29:14;;;;;;;20.83;18.83;;;11.80;1.00;;;;;;5006795;28;20467;-85
2023/05/15 04:31:44;;;;;;;20.90;19.00;;;11.90;1.00;;;;;;5005233;28;20498;-83
2023/05/15 04:34:11;;;;;;;20.70;18.60;;;12.00;1.00;;;;;;5001858;28;20474;-83
2023/05/15 04:36:41;;;;;;;35.37;31.57;;;12.00;1.00;;;;;;5001977;28;20492;-84
2023/05/15 04:39:11;;;;;;;29.03;20.60;;;12.10;1.00;;;;;;4997270;28;20458;-85
2023/05/15 04:41:38;;;;;;;24.90;19.43;;;12.20;1.00;;;;;;5008562;28;20466;-88
2023/05/15 04:44:16;;;;;;;;;;;;;;;;;;;;;
2023/05/15 04:46:45;;;;;;;21.37;18.03;;;12.20;1.00;;;;;;5005850;28;41139;-82
2023/05/15 04:49:12;;;;;;;19.50;17.90;;;12.30;1.00;;;;;;4996322;28;20538;-83
2023/05/15 04:51:43;;;;;;;19.07;17.27;;;12.40;1.00;;;;;;4997268;28;20932;-76
2023/05/15 04:54:10;;;;;;;21.23;18.70;;;12.30;1.00;;;;;;4983817;28;20463;-76
2023/05/15 04:56:56;;;;;;;19.73;17.63;;;12.40;1.00;;;;;;4988756;28;21011;-76
2023/05/15 04:59:28;;;;;;;25.10;19.70;;;12.60;1.00;;;;;;4996797;28;21371;-76
2023/05/15 05:01:57;;;;;;;19.80;17.80;;;12.70;1.00;;;;;;4995974;28;20476;-75
2023/05/15 05:04:25;;;;;;;20.70;18.70;;;12.90;1.00;;;;;;4965627;28;20460;-75
2023/05/15 05:06:52;;;;;;;19.03;17.23;;;13.00;1.00;;;;;;4983449;28;21078;-75
2023/05/15 05:09:20;;;;;;;19.23;17.20;;;13.20;1.00;;;;;;4964243;28;20456;-75
2023/05/15 05:11:48;;;;;;;20.70;18.30;;;13.50;1.00;;;;;;4966145;28;20849;-76
2023/05/15 05:14:18;;;;;;;18.63;16.93;;;13.60;1.00;;;;;;4976402;28;20481;-76
2023/05/15 05:16:46;;;;;;;19.03;16.53;;;13.80;1.00;;;;;;4969407;28;20542;-75
2023/05/15 05:19:15;;;;;;;19.70;16.70;;;14.00;1.00;;;;;;4973889;28;20458;-75
2023/05/15 05:21:42;;;;;;;17.87;16.17;;;14.30;1.00;;;;;;4980679;28;20466;-75
2023/05/15 05:24:10;;;;;;;16.90;15.40;;;14.40;1.00;;;;;;4976954;28;21204;-76
2023/05/15 05:26:38;;;;;;;20.63;15.43;;;14.60;1.00;;;;;;4978789;28;22033;-74
2023/05/15 05:29:06;;;;;;;16.73;15.00;;;14.70;1.00;;;;;;4978001;28;21508;-76
2023/05/15 05:31:37;;;;;;;16.77;15.27;;;14.90;1.00;;;;;;4975388;28;20442;-75
2023/05/15 05:34:05;;;;;;;17.60;15.80;;;15.00;1.00;;;;;;4972839;28;20465;-76
2023/05/15 05:36:35;;;;;;;20.20;15.53;;;15.10;1.00;;;;;;4978671;28;20589;-76
2023/05/15 05:39:04;;;;;;;15.10;13.77;;;15.30;1.00;;;;;;4974294;28;20480;-77
2023/05/15 05:41:32;;;;;;;19.80;14.60;;;15.40;1.00;;;;;;4977099;28;20657;-76
2023/05/15 05:43:59;;;;;;;14.60;13.30;;;15.50;1.00;;;;;;4973911;28;20593;-81
2023/05/15 05:46:30;;;;;;;18.83;14.90;;;15.50;1.00;;;;;;4982735;28;20498;-81
2023/05/15 05:48:59;;;;;;;16.73;14.80;;;15.50;1.00;;;;;;4981486;28;20503;-79
2023/05/15 05:51:26;;;;;;;16.93;15.43;;;15.50;1.00;;;;;;4975912;28;20498;-81
2023/05/15 05:53:55;;;;;;;17.57;15.67;;;15.50;1.00;;;;;;4981649;28;20472;-78
2023/05/15 05:56:26;;;;;;;15.27;13.80;;;15.50;1.00;;;;;;4969763;28;20561;-75
2023/05/15 05:58:53;;;;;;;17.50;14.60;;;15.60;1.00;;;;;;4990676;28;20507;-77
2023/05/15 06:01:27;;;;;;;18.80;15.53;;;15.60;1.00;;;;;;4972182;28;20458;-76
2023/05/15 06:03:56;;;;;;;18.17;16.23;;;15.60;1.00;;;;;;4977334;28;20505;-76
2023/05/15 06:06:28;;;;;;;15.00;13.77;;;15.70;1.00;;;;;;4968319;28;20881;-76
2023/05/15 06:08:58;;;;;;;18.20;14.87;;;15.70;1.00;;;;;;4980520;28;20499;-75
2023/05/15 06:11:33;;;;;;;17.37;15.70;;;15.70;1.00;;;;;;4993462;28;22709;-76
2023/05/15 06:14:03;;;;;;;26.40;24.00;;;15.90;1.00;;;;;;4993618;28;21763;-75
2023/05/15 06:16:30;;;;;;;19.30;14.57;;;16.00;1.00;;;;;;4992159;28;20477;-75
2023/05/15 06:19:01;;;;;;;17.40;13.00;;;16.20;1.00;;;;;;4999670;28;20473;-76
2023/05/15 06:21:28;;;;;;;21.60;13.60;;;16.40;1.00;;;;;;4993667;28;20454;-76
2023/05/15 06:23:57;;;;;;;15.57;13.27;;;16.50;1.00;;;;;;4994896;28;20479;-75
2023/05/15 06:26:24;;;;;;;16.57;11.97;;;16.60;1.00;;;;;;4990386;28;20474;-76
2023/05/15 06:28:51;;;;;;;15.50;13.40;;;16.80;1.00;;;;;;4992195;28;20549;-74
2023/05/15 06:31:18;;;;;;;15.37;13.80;;;17.00;1.00;;;;;;4980809;28;20458;-76
2023/05/15 06:33:46;;;;;;;13.87;12.47;;;17.30;1.00;;;;;;4994339;28;20475;-77
2023/05/15 06:36:17;;;;;;;14.17;12.83;;;17.50;1.00;;;;;;4989784;28;20474;-77
2023/05/15 06:38:57;;;;;;;15.00;12.87;;;17.70;1.00;;;;;;4986060;28;20489;-80
2023/05/15 06:41:26;;;;;;;17.07;15.03;;;17.70;1.00;;;;;;4996447;28;20561;-79
2023/05/15 06:43:53;;;;;;;14.20;12.90;;;17.80;1.00;;;;;;4991453;28;20450;-78
2023/05/15 06:46:21;;;;;;;14.23;12.03;;;17.90;1.00;;;;;;4996854;28;20475;-77
2023/05/15 06:48:51;;;;;;;14.93;13.43;;;18.00;1.00;;;;;;4994590;28;20464;-79
2023/05/15 06:51:18;;;;;;;14.50;13.00;;;17.80;1.00;;;;;;4995515;28;20427;-78
2023/05/15 06:53:45;;;;;;;14.03;12.60;;;18.00;1.00;;;;;;4992712;28;20479;-78
2023/05/15 06:56:15;;;;;;;15.10;11.73;;;18.20;1.00;;;;;;4996509;28;20565;-77
2023/05/15 06:58:48;;;;;;;13.27;12.03;;;18.40;1.00;;;;;;4983017;28;20936;-79
2023/05/15 07:01:16;;;;;;;14.10;12.63;;;18.50;1.00;;;;;;4988213;28;20522;-77
2023/05/15 07:03:44;;;;;;;14.50;13.00;;;18.60;1.00;;;;;;4973898;28;21071;-79
2023/05/15 07:06:12;;;;;;;19.83;12.20;;;18.90;1.00;;;;;;4990915;28;20463;-78
2023/05/15 07:08:40;;;;;;;11.97;10.63;;;19.00;1.00;;;;;;4980799;28;20501;-78
2023/05/15 07:11:07;;;;;;;16.30;12.00;;;19.20;1.00;;;;;;4976245;28;20470;-77
2023/05/15 07:13:38;;;;;;;17.10;11.33;;;19.00;1.00;;;;;;4962807;28;20467;-78
2023/05/15 07:16:05;;;;;;;17.43;11.50;;;18.90;1.00;;;;;;4973300;28;20930;-79
2023/05/15 07:18:43;;;;;;;25.57;12.13;;;19.00;1.00;;;;;;4975902;28;20600;-78
2023/05/15 07:21:12;;;;;;;15.97;12.50;;;19.10;1.00;;;;;;4974906;28;20448;-77
2023/05/15 07:23:39;;;;;;;18.07;12.30;;;18.80;1.00;;;;;;4964067;28;20475;-80
2023/05/15 07:26:08;;;;;;;16.20;12.73;;;18.80;1.00;;;;;;4961092;28;20500;-79
2023/05/15 07:28:41;;;;;;;23.10;12.50;;;18.80;1.00;;;;;;4981214;28;20477;-81
2023/05/15 07:31:08;;;;;;;19.87;12.30;;;18.90;1.00;;;;;;4979828;28;20855;-80
2023/05/15 07:33:36;;;;;;;14.97;11.43;;;18.90;1.00;;;;;;4986895;28;20549;-78
2023/05/15 07:36:03;;;;;;;15.50;12.20;;;18.90;1.00;;;;;;4990184;28;20488;-78
2023/05/15 07:38:33;;;;;;;16.70;12.23;;;19.10;1.00;;;;;;4986058;28;20449;-78
2023/05/15 07:41:03;;;;;;;13.73;10.90;;;19.00;1.00;;;;;;4985072;28;20476;-78
2023/05/15 07:43:30;;;;;;;15.17;12.20;;;19.00;1.00;;;;;;4983072;28;20466;-80
2023/05/15 07:45:59;;;;;;;13.70;11.60;;;19.10;1.00;;;;;;4979564;28;20453;-79
2023/05/15 07:48:28;;;;;;;15.90;12.23;;;19.10;1.00;;;;;;4985767;28;20446;-81
2023/05/15 07:50:55;;;;;;;22.63;14.00;;;19.20;1.00;;;;;;4987163;28;20500;-80
2023/05/15 07:53:23;;;;;;;14.87;13.40;;;19.30;1.00;;;;;;4988373;28;20466;-79
2023/05/15 07:55:56;;;;;;;16.10;12.83;;;19.30;1.00;;;;;;4980949;28;20488;-80
2023/05/15 07:58:23;;;;;;;11.10;10.00;;;19.40;1.00;;;;;;4983639;28;20513;-80
2023/05/15 08:00:50;;;;;;;11.47;9.90;;;19.60;1.00;;;;;;4973350;28;20478;-78
2023/05/15 08:03:19;;;;;;;11.27;9.33;;;19.80;1.00;;;;;;4982167;28;20549;-79
2023/05/15 08:05:46;;;;;;;10.87;9.77;;;20.00;1.00;;;;;;4977793;28;20510;-79
2023/05/15 08:08:16;;;;;;;11.97;9.90;;;20.30;1.00;;;;;;4990960;28;20521;-79
2023/05/15 08:10:43;;;;;;;11.17;10.20;;;20.50;1.00;;;;;;5001258;28;20438;-78
2023/05/15 08:13:12;;;;;;;19.20;10.97;;;20.60;1.00;;;;;;5004236;28;20897;-78
2023/05/15 08:15:39;;;;;;;17.13;15.77;;;20.80;1.00;;;;;;5001757;28;20489;-77
2023/05/15 08:18:09;;;;;;;10.30;8.67;;;20.70;1.00;;;;;;5004522;28;20475;-78
2023/05/15 08:20:38;;;;;;;9.87;9.03;;;20.60;1.00;;;;;;5003666;28;20541;-78
2023/05/15 08:23:05;;;;;;;9.97;9.13;;;20.70;1.00;;;;;;5004696;28;20463;-77
2023/05/15 08:25:33;;;;;;;10.73;9.83;;;20.70;1.00;;;;;;5006599;28;20802;-77
2023/05/15 08:28:00;;;;;;;11.20;9.90;;;20.80;1.00;;;;;;5006031;28;20452;-78
2023/05/15 08:30:27;;;;;;;9.17;8.37;;;20.60;1.00;;;;;;5003250;28;20930;-78
2023/05/15 08:32:55;;;;;;;9.93;8.93;;;20.50;1.00;;;;;;4999812;28;20477;-78
2023/05/15 08:35:23;;;;;;;10.93;9.00;;;20.30;1.00;;;;;;5000354;28;20568;-78
2023/05/15 08:37:52;;;;;;;9.73;8.73;;;20.20;1.00;;;;;;5012022;28;20531;-79
2023/05/15 08:40:20;;;;;;;13.10;10.60;;;20.00;1.00;;;;;;5004236;28;20462;-79
2023/05/15 08:42:50;;;;;;;9.50;8.60;;;19.80;1.00;;;;;;5007488;28;20475;-81
2023/05/15 08:45:18;;;;;;;22.57;19.40;;;19.80;1.00;;;;;;5002255;28;20502;-79
2023/05/15 08:47:46;;;;;;;10.43;9.53;;;19.80;1.00;;;;;;5001294;28;20471;-78
2023/05/15 08:50:16;;;;;;;11.07;9.87;;;19.80;1.00;;;;;;5002357;28;20472;-78
2023/05/15 08:52:46;;;;;;;11.93;10.00;;;19.90;1.00;;;;;;5008636;28;20457;-77
2023/05/15 08:55:21;;;;;;;11.73;10.53;;;19.80;1.00;;;;;;4990222;28;20476;-78
2023/05/15 08:57:50;;;;;;;11.43;10.30;;;19.80;1.00;;;;;;4999811;28;20561;-78
2023/05/15 09:00:19;;;;;;;14.90;12.77;;;19.70;1.00;;;;;;5000465;28;20470;-77
2023/05/15 09:02:47;;;;;;;11.27;10.27;;;19.60;1.00;;;;;;4999125;28;20532;-78
2023/05/15 09:05:14;;;;;;;14.50;10.23;;;19.60;1.00;;;;;;4998215;28;20537;-78
2023/05/15 09:07:44;;;;;;;18.30;11.40;;;19.60;1.00;;;;;;4978397;28;20490;-79
2023/05/15 09:10:15;;;;;;;14.10;10.20;;;19.70;1.00;;;;;;4993912;28;20803;-78
2023/05/15 09:12:44;;;;;;;11.70;10.70;;;19.70;1.00;;;;;;5001755;28;20485;-76
2023/05/15 09:15:14;;;;;;;12.93;10.80;;;19.70;1.00;;;;;;4996226;28;20482;-78
2023/05/15 09:17:42;;;;;;;10.93;9.80;;;19.70;1.00;;;;;;4999331;28;20557;-78
2023/05/15 09:23:23;;;;;;;11.17;9.07;;;19.80;1.00;;;;;;5000811;28;20494;-78
2023/05/15 09:25:55;;;;;;;9.67;8.83;;;19.90;1.00;;;;;;4995800;28;20473;-78
2023/05/15 09:28:28;;;;;;;9.27;8.37;;;20.00;1.00;;;;;;4997455;28;20473;-78
2023/05/15 09:31:00;;;;;;;12.70;8.80;;;20.00;1.00;;;;;;4995777;28;20953;-76
2023/05/15 09:33:31;;;;;;;10.70;9.73;;;20.00;1.00;;;;;;4994722;28;21740;-75
2023/05/15 09:36:06;;;;;;;9.73;8.80;;;20.00;1.00;;;;;;4999264;28;20985;-78
2023/05/15 09:38:34;;;;;;;9.37;8.60;;;19.90;1.00;;;;;;5002449;28;20469;-79
2023/05/15 09:41:06;;;;;;;9.70;8.90;;;19.80;1.00;;;;;;5001586;28;20462;-80
2023/05/15 09:43:38;;;;;;;11.53;10.53;;;19.80;1.00;;;;;;5002065;28;20553;-79
2023/05/15 09:46:06;;;;;;;10.40;9.33;;;19.90;1.00;;;;;;4994594;28;20478;-77
2023/05/15 09:48:35;;;;;;;9.90;9.10;;;20.10;1.00;;;;;;4978930;28;20914;-78
2023/05/15 09:51:04;;;;;;;11.03;8.53;;;20.20;1.00;;;;;;4993892;28;21060;-78
2023/05/15 09:53:32;;;;;;;12.90;8.97;;;20.10;1.00;;;;;;5000163;28;20851;-80
2023/05/15 09:55:59;;;;;;;11.13;10.23;;;20.00;1.00;;;;;;4997588;28;20436;-79
2023/05/15 09:58:28;;;;;;;15.77;12.00;;;20.10;1.00;;;;;;4999743;28;20461;-79
2023/05/15 10:00:59;;;;;;;10.97;10.00;;;20.00;1.00;;;;;;4997808;28;20602;-78
2023/05/15 10:03:26;;;;;;;10.10;9.10;;;20.10;1.00;;;;;;4996209;28;20557;-79
2023/05/15 10:06:00;;;;;;;14.03;10.47;;;20.20;1.00;;;;;;4999924;28;21919;-78
2023/05/15 10:08:28;;;;;;;12.97;10.63;;;20.30;1.00;;;;;;4994308;28;20465;-77
2023/05/15 10:11:00;;;;;;;11.77;10.53;;;20.40;1.00;;;;;;5008662;28;20523;-78
2023/05/15 10:13:33;;;;;;;16.33;10.03;;;20.40;1.00;;;;;;5005909;28;20451;-79
2023/05/15 10:16:02;;;;;;;10.70;9.77;;;20.60;1.00;;;;;;5010890;28;20575;-78
2023/05/15 10:18:33;;;;;;;12.40;11.10;;;20.50;1.00;;;;;;5013270;28;20475;-79
2023/05/15 10:21:03;;;;;;;16.13;10.67;;;20.60;1.00;;;;;;5010804;28;20442;-78
2023/05/15 10:23:31;;;;;;;11.57;9.07;;;20.60;1.00;;;;;;5014078;28;20474;-78
2023/05/15 10:26:03;;;;;;;13.97;12.70;;;20.60;1.00;;;;;;5010418;28;20435;-80
2023/05/15 10:28:33;;;;;;;10.90;10.00;;;20.60;1.00;;;;;;5003112;28;20425;-77
2023/05/15 10:31:02;;;;;;;8.53;7.73;;;20.50;1.00;;;;;;5001098;28;20480;-78
2023/05/15 10:33:30;;;;;;;8.97;8.17;;;20.40;1.00;;;;;;5011489;28;20466;-79
2023/05/15 10:36:03;;;;;;;10.47;7.97;;;20.30;1.00;;;;;;4998706;28;20505;-78
2023/05/15 10:38:31;;;;;;;7.87;7.20;;;20.00;1.00;;;;;;5004200;28;20817;-82
2023/05/15 10:41:00;;;;;;;8.20;7.60;;;19.60;1.00;;;;;;5008954;28;20461;-81
2023/05/15 10:43:30;;;;;;;8.63;7.80;;;19.30;1.00;;;;;;5010072;28;20478;-83
2023/05/15 10:45:59;;;;;;;7.93;7.20;;;19.10;1.00;;;;;;5006136;28;20446;-82
2023/05/15 10:48:27;;;;;;;8.00;7.20;;;19.00;1.00;;;;;;5012436;28;20469;-82
2023/05/15 10:50:54;;;;;;;8.80;8.10;;;19.00;1.00;;;;;;4997239;28;20947;-83
2023/05/15 10:53:22;;;;;;;8.53;7.43;;;19.00;1.00;;;;;;5002963;28;20498;-82
2023/05/15 10:55:49;;;;;;;9.07;8.37;;;19.10;1.00;;;;;;5005843;28;21284;-82
2023/05/15 10:58:18;;;;;;;13.30;11.97;;;19.40;1.00;;;;;;5009241;28;20468;-83
2023/05/15 11:00:46;;;;;;;29.77;26.90;;;19.80;1.00;;;;;;4996030;28;20463;-83
2023/05/15 11:03:18;;;;;;;10.03;9.33;;;20.30;1.00;;;;;;5004692;28;20820;-83
2023/05/15 11:06:08;;;;;;;10.13;9.07;;;20.60;1.00;;;;;;5000634;28;20460;-81
2023/05/15 11:08:35;;;;;;;8.83;8.00;;;20.90;1.00;;;;;;5003470;28;20480;-81
2023/05/15 11:11:03;;;;;;;9.77;7.60;;;21.20;1.00;;;;;;4996236;28;20472;-82
2023/05/15 11:14:03;;;;;;;8.87;6.90;;;21.50;1.00;;;;;;5005548;28;20466;-82
2023/05/15 11:16:59;;;;;;;6.40;5.90;;;21.80;1.00;;;;;;5002621;28;20967;-82
2023/05/15 11:19:47;;;;;;;7.00;6.40;;;21.90;1.00;;;;;;5005154;28;20553;-81
2023/05/15 11:22:19;;;;;;;8.30;6.17;;;22.10;1.00;;;;;;5005984;28;20506;-81
2023/05/15 11:24:54;;;;;;;8.50;6.77;;;22.20;1.00;;;;;;5005909;28;20567;-80
2023/05/15 11:27:29;;;;;;;6.93;5.57;;;22.30;1.00;;;;;;5009416;28;20468;-84
2023/05/15 11:30:21;;;;;;;7.50;6.90;;;22.40;1.00;;;;;;5007899;28;21317;-83
2023/05/15 11:32:51;;;;;;;9.63;6.60;;;22.70;1.00;;;;;;5012434;28;20418;-82
2023/05/15 11:35:29;;;;;;;7.17;5.20;;;23.00;1.00;;;;;;5010080;28;20459;-83
2023/05/15 11:38:01;;;;;;;6.07;5.47;;;24.20;1.00;;;;;;5010892;28;20449;-83
2023/05/15 11:40:32;;;;;;;4.83;4.40;;;25.80;1.00;;;;;;4989002;28;20455;-85
2023/05/15 11:43:08;;;;;;;5.43;4.93;;;26.70;1.00;;;;;;4999751;28;20466;-85
2023/05/15 11:45:37;;;;;;;5.37;4.90;;;26.60;1.00;;;;;;5012123;28;21219;-83
2023/05/15 11:48:06;;;;;;;5.53;4.20;;;26.20;1.00;;;;;;5012493;28;20481;-83
2023/05/15 11:50:35;;;;;;;11.03;4.67;;;26.40;1.00;;;;;;5011258;28;20426;-82
2023/05/15 11:53:04;;;;;;;4.73;4.23;;;26.90;1.00;;;;;;5009850;28;20474;-80
2023/05/15 11:55:33;;;;;;;6.00;3.97;;;27.90;1.00;;;;;;5002257;28;20497;-86
2023/05/15 11:58:00;;;;;;;5.97;3.97;;;29.40;1.00;;;;;;5005126;28;20532;-83
2023/05/15 12:00:32;;;;;;;4.20;3.23;;;30.90;1.00;;;;;;5009255;28;20459;-84
2023/05/15 12:03:03;;;;;;;4.23;3.20;;;32.40;1.00;;;;;;4997873;28;20588;-83
2023/05/15 12:05:30;;;;;;;4.67;3.43;;;33.70;1.00;;;;;;5000693;28;20537;-85
2023/05/15 12:08:01;;;;;;;4.33;2.90;;;34.90;1.00;;;;;;5008635;28;21285;-84
2023/05/15 12:10:29;;;;;;;4.47;2.83;;;35.50;1.00;;;;;;5005795;28;21065;-82
2023/05/15 12:12:58;;;;;;;2.73;2.53;;;36.30;1.00;;;;;;5008319;28;20454;-85
2023/05/15 12:15:26;;;;;;;3.57;3.27;;;36.70;1.00;;;;;;5004051;28;20917;-84
2023/05/15 12:17:53;;;;;;;3.27;2.90;;;37.10;1.00;;;;;;5004888;28;20450;-85
2023/05/15 12:20:20;;;;;;;4.87;4.50;;;37.30;1.00;;;;;;5010729;28;20414;-83
2023/05/15 12:22:49;;;;;;;3.73;3.43;;;36.70;1.00;;;;;;5010275;28;20904;-84
2023/05/15 12:25:17;;;;;;;3.53;3.23;;;36.00;1.00;;;;;;5010155;28;20431;-84
2023/05/15 12:27:49;;;;;;;3.13;2.93;;;35.40;1.00;;;;;;5004083;28;20525;-83
2023/05/15 12:30:16;;;;;;;35.37;11.63;;;35.00;1.00;;;;;;5012110;28;20509;-86
2023/05/15 12:32:45;;;;;;;3.97;3.57;;;34.10;1.00;;;;;;5002827;28;20585;-84
2023/05/15 12:35:13;;;;;;;3.57;3.27;;;33.80;1.00;;;;;;4997378;28;20498;-81
2023/05/15 12:37:42;;;;;;;16.00;14.50;;;33.60;1.00;;;;;;5011115;28;20474;-81
2023/05/15 12:40:11;;;;;;;3.60;3.30;;;33.70;1.00;;;;;;4999066;28;20534;-80
2023/05/15 12:42:41;;;;;;;3.20;2.90;;;33.90;1.00;;;;;;5001659;28;20573;-80
2023/05/15 12:45:16;;;;;;;3.10;2.80;;;33.60;1.00;;;;;;5004810;28;20547;-79
2023/05/15 12:47:43;;;;;;;4.13;3.73;;;34.00;1.00;;;;;;5003734;28;20489;-81
2023/05/15 12:50:16;;;;;;;4.13;3.70;;;35.40;1.00;;;;;;4993273;28;21239;-78
2023/05/15 12:52:50;;;;;;;4.63;4.23;;;36.20;1.00;;;;;;5001983;28;20474;-79
2023/05/15 12:55:18;;;;;;;3.50;3.23;;;36.50;1.00;;;;;;4997188;28;22810;-79
2023/05/15 12:57:49;;;;;;;4.83;3.40;;;36.50;1.00;;;;;;5000044;28;20500;-80
2023/05/15 13:00:17;;;;;;;7.47;4.90;;;36.70;1.00;;;;;;5002425;28;20454;-81